Terminal Aerodrome Forecast
Issued by NWS Cleveland, OH

Home | Current Version | Previous Version | Graphics & Text | Print | Product List | Glossary On
Versions: 1 2 3 4 5 6 7 8 9 10 11 12 13 14 15 16 17 18 19 20
000
FTUS41 KCLE 152300
TAFTOL
TAF
KTOL 152340Z 1600/1624 13005KT P6SM BKN080 OVC200
     FM160300 13006KT P6SM SCT025 OVC080
      TEMPO 1603/1605 6SM -RA BR SCT015 OVC025
     FM160500 13006KT 4SM -RA BR SCT008 OVC015
     FM160800 14006KT 4SM BR OVC008
     FM161400 23008KT 5SM -RA BR OVC006
     FM161900 25010KT 6SM -RA BR OVC012=

USA.gov is the U.S. government's official web portal to all federal, state and local government web resources and services.